Carmen — SMGW — position and weather

sailwx.info

Track history (hours):
 
Tides and Currents Weather Stations Pressure Air Temp Water Temp Dewpoint Dewpoint Depression Visibility Wind Speed Wind Dir Waves Ship Positions

Carmen

Last reported at 2018-Feb-25 15:30 UTC. Time now 2018-Feb-25 15:58 UTC.
Position N 31°06' E 122°27'.

Length 231 m; draft 9.6 m.

Type: Cargo ship. MMSI: 266339000.

Date/timePositionNaut miles runAvg speedWind from/ knotsBaromVisibWave heightAir tempDewpointWater temp
2018-Feb-25 15:30N 31°06' E 122°27'4 8.4
2018-Feb-25 15:00N 31°06' E 122°22'2012.6
2018-Feb-25 13:25N 31°15' E 122°01'612.6
2018-Feb-25 12:59N 31°16' E 121°55'612.4
2018-Feb-25 12:30N 31°17' E 121°48'4 0.3
2018-Feb-24 21:35N 31°19' E 121°44'1 9.3
2018-Feb-24 21:30N 31°19' E 121°45'510.9
2018-Feb-24 21:00N 31°17' E 121°50'510.7
2018-Feb-24 20:30N 31°15' E 121°56'714.4
2018-Feb-24 20:00N 31°14' E 122°05'510.0
2018-Feb-24 19:29N 31°11' E 122°10'510.0
2018-Feb-24 18:59N 31°08' E 122°15'  
2018-Feb-21 16:36N 37°50' E 122°01'219.0
2018-Feb-21 16:30N 37°50' E 121°59'918.9
2018-Feb-21 16:00N 37°48' E 121°47'1019.1
2018-Feb-21 15:30N 37°44' E 121°36'917.3
2018-Feb-21 15:00N 37°38' E 121°28'510.6
2018-Feb-21 14:30N 37°34' E 121°24'1 1.8
2018-Feb-21 14:00N 37°34' E 121°23'0 0.0
2018-Feb-21 13:30N 37°34' E 121°23'0 0.0
2018-Feb-21 13:00N 37°34' E 121°23'0 0.0
2018-Feb-21 12:30N 37°34' E 121°23'0 0.0
2018-Feb-21 12:00N 37°34' E 121°23'0 0.0
2018-Feb-21 11:30N 37°34' E 121°23'0 0.0
2018-Feb-21 11:00N 37°34' E 121°23'0 0.0
2018-Feb-21 10:30N 37°34' E 121°23'0 0.0
2018-Feb-21 10:00N 37°34' E 121°23'0 0.0
2018-Feb-21 09:30N 37°34' E 121°23'0 0.0
2018-Feb-21 09:00N 37°34' E 121°23'0 0.0
2018-Feb-21 08:30N 37°34' E 121°23'0 0.5
2018-Feb-21 08:00N 37°34' E 121°23'2 3.7
2018-Feb-21 07:30N 37°35' E 121°25'5 9.2
2018-Feb-21 07:00N 37°39' E 121°28'4 7.7
2018-Feb-21 06:30N 37°42' E 121°30'1 1.7
2018-Feb-21 06:00N 37°43' E 121°31'3 5.3
2018-Feb-21 05:30N 37°45' E 121°32'510.1
2018-Feb-21 05:00N 37°50' E 121°34'510.6
2018-Feb-21 04:30N 37°55' E 121°35'  
2018-Feb-18 12:00N 33°30' E 128°00'16213.5 070 / 101022.210.8 9.6 15.8
2018-Feb-18 00:00N 30°48' E 128°06'8013.3 040 / 41023.310.8 11.7 20.0
2018-Feb-17 18:00N 29°30' E 128°24'10317.2 070 / 101022.010.8 13.8 21.0
2018-Feb-17 12:00N 27°48' E 128°42'18115.1 040 / 161021.210.8 15.2 20.9
2018-Feb-17 00:00N 25°12' E 130°24'9215.4 020 / 191015.3 5.4 20.2 21.9
2018-Feb-16 18:00N 23°54' E 131°18'9816.3 180 / 141012.4 5.4 21.8 22.3
2018-Feb-16 12:00N 22°30' E 132°12'18915.7 110 / 101014.910.8 23.0 23.9
2018-Feb-16 00:00N 19°54' E 134°06'9816.4 110 / 141016.8 5.4 26.5 26.0
2018-Feb-15 18:00N 18°30' E 135°00'   070 / 161014.710.8 25.9 27.0
Track history (hours):
 
Tides and Currents Weather Stations Pressure Air Temp Water Temp Dewpoint Dewpoint Depression Visibility Wind Speed Wind Dir Waves Ship Positions

Carmen

Last reported at 2018-Feb-25 15:30 UTC. Time now 2018-Feb-25 15:58 UTC.
Position N 31°06' E 122°27'.

Length 231 m; draft 9.6 m.

Type: Cargo ship. MMSI: 266339000.

Date/timePositionNaut miles runAvg speedWind from/ knotsBaromVisibWave heightAir tempDewpointWater temp
2018-Feb-25 15:30N 31°06' E 122°27'4 8.4
2018-Feb-25 15:00N 31°06' E 122°22'2012.6
2018-Feb-25 13:25N 31°15' E 122°01'612.6
2018-Feb-25 12:59N 31°16' E 121°55'612.4
2018-Feb-25 12:30N 31°17' E 121°48'4 0.3
2018-Feb-24 21:35N 31°19' E 121°44'1 9.3
2018-Feb-24 21:30N 31°19' E 121°45'510.9
2018-Feb-24 21:00N 31°17' E 121°50'510.7
2018-Feb-24 20:30N 31°15' E 121°56'714.4
2018-Feb-24 20:00N 31°14' E 122°05'510.0
2018-Feb-24 19:29N 31°11' E 122°10'510.0
2018-Feb-24 18:59N 31°08' E 122°15'  
2018-Feb-21 16:36N 37°50' E 122°01'219.0
2018-Feb-21 16:30N 37°50' E 121°59'918.9
2018-Feb-21 16:00N 37°48' E 121°47'1019.1
2018-Feb-21 15:30N 37°44' E 121°36'917.3
2018-Feb-21 15:00N 37°38' E 121°28'510.6
2018-Feb-21 14:30N 37°34' E 121°24'1 1.8
2018-Feb-21 14:00N 37°34' E 121°23'0 0.0
2018-Feb-21 13:30N 37°34' E 121°23'0 0.0
2018-Feb-21 13:00N 37°34' E 121°23'0 0.0
2018-Feb-21 12:30N 37°34' E 121°23'0 0.0
2018-Feb-21 12:00N 37°34' E 121°23'0 0.0
2018-Feb-21 11:30N 37°34' E 121°23'0 0.0
2018-Feb-21 11:00N 37°34' E 121°23'0 0.0
2018-Feb-21 10:30N 37°34' E 121°23'0 0.0
2018-Feb-21 10:00N 37°34' E 121°23'0 0.0
2018-Feb-21 09:30N 37°34' E 121°23'0 0.0
2018-Feb-21 09:00N 37°34' E 121°23'0 0.0
2018-Feb-21 08:30N 37°34' E 121°23'0 0.5
2018-Feb-21 08:00N 37°34' E 121°23'2 3.7
2018-Feb-21 07:30N 37°35' E 121°25'5 9.2
2018-Feb-21 07:00N 37°39' E 121°28'4 7.7
2018-Feb-21 06:30N 37°42' E 121°30'1 1.7
2018-Feb-21 06:00N 37°43' E 121°31'3 5.3
2018-Feb-21 05:30N 37°45' E 121°32'510.1
2018-Feb-21 05:00N 37°50' E 121°34'510.6
2018-Feb-21 04:30N 37°55' E 121°35'  
2018-Feb-18 12:00N 33°30' E 128°00'16213.5 070 / 101022.210.8 9.6 15.8
2018-Feb-18 00:00N 30°48' E 128°06'8013.3 040 / 41023.310.8 11.7 20.0
2018-Feb-17 18:00N 29°30' E 128°24'10317.2 070 / 101022.010.8 13.8 21.0
2018-Feb-17 12:00N 27°48' E 128°42'18115.1 040 / 161021.210.8 15.2 20.9
2018-Feb-17 00:00N 25°12' E 130°24'9215.4 020 / 191015.3 5.4 20.2 21.9
2018-Feb-16 18:00N 23°54' E 131°18'9816.3 180 / 141012.4 5.4 21.8 22.3
2018-Feb-16 12:00N 22°30' E 132°12'18915.7 110 / 101014.910.8 23.0 23.9
2018-Feb-16 00:00N 19°54' E 134°06'9816.4 110 / 141016.8 5.4 26.5 26.0
2018-Feb-15 18:00N 18°30' E 135°00'   070 / 161014.710.8 25.9 27.0

Dump ship's entire track history